createdAt,value
2023-01-11T00:02:18.093Z,6.48
2023-01-11T00:04:47.478Z,6.53
2023-01-11T00:07:15.135Z,6.54
2023-01-11T00:09:42.679Z,6.51
2023-01-11T00:12:14.123Z,6.40
2023-01-11T00:14:41.834Z,6.43
2023-01-11T00:17:09.559Z,6.37
2023-01-11T00:19:37.149Z,6.41
2023-01-11T00:22:04.829Z,6.60
2023-01-11T00:24:32.379Z,6.56
2023-01-11T00:26:59.964Z,6.76
2023-01-11T00:29:28.866Z,6.73
2023-01-11T00:31:56.441Z,6.55
2023-01-11T00:34:24.080Z,6.66
2023-01-11T00:36:51.741Z,6.63
2023-01-11T00:39:19.388Z,6.57
2023-01-11T00:42:04.806Z,6.55
2023-01-11T00:44:51.381Z,6.64
2023-01-11T00:47:36.979Z,6.70
2023-01-11T00:50:05.099Z,6.61
2023-01-11T00:52:32.677Z,6.52
2023-01-11T00:55:00.275Z,6.62
2023-01-11T00:57:27.928Z,6.64
2023-01-11T00:59:56.850Z,6.72
2023-01-11T01:02:24.649Z,6.72
2023-01-11T01:04:52.219Z,6.84
2023-01-11T01:07:19.768Z,6.90
2023-01-11T01:09:47.359Z,6.95
2023-01-11T01:12:35.242Z,6.80
2023-01-11T01:15:03.424Z,6.84
2023-01-11T01:17:30.998Z,6.98
2023-01-11T01:19:58.713Z,7.03
2023-01-11T01:22:26.425Z,7.07
2023-01-11T01:24:53.965Z,7.04
2023-01-11T01:27:21.554Z,7.15
2023-01-11T01:29:49.099Z,6.91
2023-01-11T01:32:17.965Z,6.92
2023-01-11T01:34:45.585Z,6.90
2023-01-11T01:37:14.779Z,7.03
2023-01-11T01:39:42.579Z,6.91
2023-01-11T01:42:15.121Z,7.01
2023-01-11T01:45:01.320Z,7.09
2023-01-11T01:47:36.250Z,7.22
2023-01-11T01:50:07.720Z,7.20
2023-01-11T01:52:36.500Z,7.17
2023-01-11T01:55:09.141Z,7.09
2023-01-11T01:57:40.930Z,7.04
2023-01-11T02:00:10.665Z,6.94
2023-01-11T02:02:42.534Z,6.80
2023-01-11T02:05:11.283Z,6.82
2023-01-11T02:07:41.717Z,6.86
2023-01-11T02:10:11.367Z,6.97
2023-01-11T02:12:41.482Z,6.85
2023-01-11T02:15:11.510Z,6.85
2023-01-11T02:17:40.606Z,6.82
2023-01-11T02:20:33.772Z,6.88
2023-01-11T02:23:36.379Z,7.01
2023-01-11T02:26:41.328Z,7.07
2023-01-11T02:29:16.546Z,7.01
2023-01-11T02:31:52.511Z,7.02
2023-01-11T02:34:33.305Z,6.92
2023-01-11T02:37:21.073Z,7.04
2023-01-11T02:40:00.157Z,7.00
2023-01-11T02:42:55.720Z,7.08
2023-01-11T02:45:38.255Z,7.16
2023-01-11T02:48:15.567Z,7.10
2023-01-11T02:50:49.602Z,7.05
2023-01-11T02:53:22.996Z,6.98
2023-01-11T02:55:55.405Z,6.97
2023-01-11T02:58:26.314Z,7.05
2023-01-11T03:00:58.467Z,6.99
2023-01-11T03:03:28.115Z,7.09
2023-01-11T03:05:59.765Z,7.02
2023-01-11T03:08:47.972Z,7.17
2023-01-11T03:11:41.609Z,7.18
2023-01-11T03:14:24.907Z,7.13
2023-01-11T03:17:03.097Z,7.10
2023-01-11T03:19:39.594Z,7.15
2023-01-11T03:22:13.910Z,7.01
2023-01-11T03:24:47.497Z,7.01
2023-01-11T03:27:25.816Z,6.98
2023-01-11T03:30:02.600Z,7.13
2023-01-11T03:32:36.095Z,7.12
2023-01-11T03:35:15.952Z,7.24
2023-01-11T03:37:49.730Z,7.29
2023-01-11T03:40:22.574Z,7.35
2023-01-11T03:43:11.994Z,7.45
2023-01-11T03:45:46.639Z,7.48
2023-01-11T03:48:19.662Z,7.61
2023-01-11T03:50:50.755Z,7.65
2023-01-11T03:53:21.107Z,7.81
2023-01-11T03:55:53.137Z,7.81
2023-01-11T03:58:20.751Z,7.98
2023-01-11T04:00:49.436Z,8.06
2023-01-11T04:03:18.358Z,8.19
2023-01-11T04:05:51.713Z,8.01
2023-01-11T04:08:19.492Z,7.92
2023-01-11T04:10:47.317Z,7.98
2023-01-11T04:13:14.934Z,7.96
2023-01-11T04:15:42.926Z,7.94
2023-01-11T04:18:10.581Z,7.97
2023-01-11T04:20:41.121Z,7.75
2023-01-11T04:23:10.722Z,7.93
2023-01-11T04:25:38.638Z,7.96
2023-01-11T04:28:06.532Z,7.96
2023-01-11T04:30:34.217Z,7.87
2023-01-11T04:33:01.882Z,7.84
2023-01-11T04:35:29.560Z,7.86
2023-01-11T04:37:59.133Z,7.83
2023-01-11T04:40:27.065Z,7.92
2023-01-11T04:42:53.717Z,7.91
2023-01-11T04:45:21.606Z,7.87
2023-01-11T04:47:54.685Z,7.93
2023-01-11T04:50:22.336Z,7.89
2023-01-11T04:52:49.972Z,8.02
2023-01-11T04:55:19.222Z,8.15
2023-01-11T04:57:47.330Z,8.17
2023-01-11T05:00:16.025Z,8.16
2023-01-11T05:02:43.845Z,8.15
2023-01-11T05:05:11.993Z,8.20
2023-01-11T05:07:39.890Z,8.06
2023-01-11T05:10:08.611Z,8.29
2023-01-11T05:12:37.813Z,8.34
2023-01-11T05:15:06.480Z,8.26
2023-01-11T05:17:34.045Z,8.42
2023-01-11T05:20:01.954Z,8.52
2023-01-11T05:22:29.542Z,8.62
2023-01-11T05:24:57.099Z,8.68
2023-01-11T05:27:24.656Z,8.68
2023-01-11T05:29:53.534Z,8.75
2023-01-11T05:32:21.076Z,8.79
2023-01-11T05:34:48.728Z,8.78
2023-01-11T05:37:16.307Z,8.84
2023-01-11T05:39:43.848Z,8.87
2023-01-11T05:42:11.411Z,8.88
2023-01-11T05:44:58.175Z,8.89
2023-01-11T05:47:27.194Z,8.93
2023-01-11T05:49:54.878Z,8.88
2023-01-11T05:52:22.735Z,8.91
2023-01-11T05:54:50.354Z,8.81
2023-01-11T05:57:17.985Z,8.92
2023-01-11T05:59:45.620Z,8.92
2023-01-11T06:02:13.258Z,8.96
2023-01-11T06:04:42.284Z,9.02
2023-01-11T06:07:10.433Z,8.90
2023-01-11T06:09:38.006Z,8.99
2023-01-11T06:12:05.785Z,9.06
2023-01-11T06:14:33.357Z,9.11
2023-01-11T06:17:02.553Z,9.11
2023-01-11T06:19:30.170Z,9.11
2023-01-11T06:21:59.047Z,9.16
2023-01-11T06:24:26.591Z,9.23
2023-01-11T06:26:54.240Z,9.22
2023-01-11T06:29:22.202Z,9.21
2023-01-11T06:31:49.815Z,9.27
2023-01-11T06:34:17.381Z,9.28
2023-01-11T06:36:44.959Z,9.25
2023-01-11T06:39:14.051Z,9.30
2023-01-11T06:41:41.618Z,9.31
2023-01-11T06:44:09.281Z,9.34
2023-01-11T06:46:37.058Z,9.35
2023-01-11T06:49:04.777Z,9.11
2023-01-11T06:51:32.645Z,9.23
2023-01-11T06:54:00.237Z,9.21
2023-01-11T06:56:29.244Z,9.16
2023-01-11T06:58:56.848Z,9.22
2023-01-11T07:01:24.944Z,9.31
2023-01-11T07:03:52.603Z,9.34
2023-01-11T07:06:20.370Z,9.33
2023-01-11T07:08:47.936Z,9.46
2023-01-11T07:11:15.512Z,9.46
2023-01-11T07:13:44.500Z,9.48
2023-01-11T07:16:12.217Z,9.44
2023-01-11T07:18:39.826Z,9.45
2023-01-11T07:21:07.512Z,9.40
2023-01-11T07:23:35.055Z,9.47
2023-01-11T07:26:03.561Z,9.43
2023-01-11T07:28:31.166Z,9.44
2023-01-11T07:31:00.457Z,9.45
2023-01-11T07:33:28.705Z,9.48
2023-01-11T07:35:57.961Z,9.59
2023-01-11T07:38:25.639Z,9.57
2023-01-11T07:40:53.253Z,9.63
2023-01-11T07:43:22.915Z,9.62
2023-01-11T07:45:52.538Z,9.67
2023-01-11T07:48:24.987Z,9.78
2023-01-11T07:50:53.448Z,9.77
2023-01-11T07:53:21.152Z,9.66
2023-01-11T07:55:48.738Z,9.83
2023-01-11T07:58:16.707Z,9.82
2023-01-11T08:00:45.898Z,9.86
2023-01-11T08:03:13.724Z,10.02
2023-01-11T08:05:42.696Z,9.99
2023-01-11T08:08:10.304Z,9.83
2023-01-11T08:10:39.736Z,9.71
2023-01-11T08:13:30.201Z,9.71
2023-01-11T08:15:58.421Z,9.71
2023-01-11T08:18:26.070Z,9.41
2023-01-11T08:20:55.084Z,9.61
2023-01-11T08:23:22.644Z,9.50
2023-01-11T08:25:50.317Z,9.56
2023-01-11T08:28:17.965Z,9.77
2023-01-11T08:30:45.657Z,9.76
2023-01-11T08:33:13.355Z,9.95
2023-01-11T08:35:41.193Z,9.94
2023-01-11T08:38:10.103Z,10.03
2023-01-11T08:40:38.103Z,10.09
2023-01-11T08:43:05.684Z,10.14
2023-01-11T08:45:34.051Z,10.19
2023-01-11T08:48:01.813Z,10.24
2023-01-11T08:50:29.421Z,10.22
2023-01-11T08:52:57.036Z,10.20
2023-01-11T08:55:25.943Z,10.21
2023-01-11T08:57:53.484Z,10.36
2023-01-11T09:00:21.403Z,10.42
2023-01-11T09:02:49.162Z,10.49
2023-01-11T09:05:18.393Z,10.49
2023-01-11T09:07:46.706Z,10.48
2023-01-11T09:10:14.304Z,10.55
2023-01-11T09:12:43.290Z,10.59
2023-01-11T09:15:11.758Z,10.62
2023-01-11T09:17:39.405Z,10.61
2023-01-11T09:20:08.182Z,10.67
2023-01-11T09:22:35.738Z,10.69
2023-01-11T09:25:03.349Z,10.66
2023-01-11T09:27:30.970Z,10.69
2023-01-11T09:30:01.468Z,10.68
2023-01-11T09:32:29.185Z,10.61
2023-01-11T09:34:58.099Z,10.66
2023-01-11T09:37:25.974Z,10.64
2023-01-11T09:39:53.645Z,10.64
2023-01-11T09:42:35.210Z,10.69
2023-01-11T09:45:12.910Z,10.69
2023-01-11T09:47:45.052Z,10.68
2023-01-11T09:50:18.605Z,10.71
2023-01-11T09:52:52.592Z,10.69
2023-01-11T09:55:28.659Z,10.72
2023-01-11T09:58:22.959Z,10.77
2023-01-11T10:01:01.128Z,10.77
2023-01-11T10:03:45.539Z,10.71
2023-01-11T10:06:19.949Z,10.73
2023-01-11T10:18:29.326Z,10.80
2023-01-11T10:18:40.364Z,10.77
2023-01-11T10:21:11.007Z,10.87
2023-01-11T10:23:49.549Z,10.91
2023-01-11T10:26:27.602Z,10.80
2023-01-11T10:29:17.358Z,10.79
2023-01-11T10:32:09.434Z,10.78
2023-01-11T10:35:02.853Z,10.84
2023-01-11T10:37:59.523Z,10.87
2023-01-11T10:40:37.608Z,10.78
2023-01-11T10:43:12.879Z,10.85
2023-01-11T10:45:44.425Z,11.00
2023-01-11T10:48:18.667Z,10.91
2023-01-11T10:50:52.939Z,10.89
2023-01-11T10:53:26.428Z,10.90
2023-01-11T10:56:02.416Z,10.89
2023-01-11T10:58:47.220Z,10.88
2023-01-11T11:01:28.800Z,10.83
2023-01-11T11:04:10.331Z,10.78
2023-01-11T11:06:48.682Z,10.63
2023-01-11T11:09:25.202Z,10.77
2023-01-11T11:11:59.556Z,10.91
2023-01-11T11:14:35.574Z,10.73
2023-01-11T11:17:16.706Z,11.01
2023-01-11T11:19:44.299Z,10.95
2023-01-11T11:22:14.480Z,10.89
2023-01-11T11:24:46.688Z,11.04
2023-01-11T11:27:22.701Z,10.98
2023-01-11T11:29:52.447Z,11.20
2023-01-11T11:32:25.368Z,11.15
2023-01-11T11:34:54.008Z,11.14
2023-01-11T11:37:26.447Z,11.18
2023-01-11T11:39:55.480Z,11.18
2023-01-11T11:42:23.708Z,11.42
2023-01-11T11:45:21.755Z,11.47
2023-01-11T11:48:03.898Z,11.61
2023-01-11T11:50:44.297Z,11.33
2023-01-11T11:53:24.634Z,11.60
2023-01-11T11:55:53.582Z,11.93
2023-01-11T11:58:24.322Z,11.83
2023-01-11T12:00:53.926Z,11.81
2023-01-11T12:03:25.757Z,11.85
2023-01-11T12:05:58.649Z,11.72
2023-01-11T12:08:28.793Z,11.72
2023-01-11T12:10:58.456Z,12.03
2023-01-11T12:13:37.764Z,12.11
2023-01-11T12:16:08.494Z,12.10
2023-01-11T12:18:42.911Z,11.94
2023-01-11T12:21:21.933Z,12.07
2023-01-11T12:24:10.156Z,11.99
2023-01-11T12:26:44.910Z,11.87
2023-01-11T12:29:24.819Z,11.61
2023-01-11T12:32:25.790Z,11.56
2023-01-11T12:35:10.537Z,11.48
2023-01-11T12:38:00.838Z,11.50
2023-01-11T12:40:37.333Z,11.56
2023-01-11T12:43:21.985Z,11.63
2023-01-11T12:45:54.407Z,11.48
2023-01-11T12:48:33.087Z,11.60
2023-01-11T12:51:21.362Z,11.70
2023-01-11T12:54:01.348Z,11.56
2023-01-11T12:56:43.829Z,11.50
2023-01-11T12:59:28.816Z,11.61
2023-01-11T13:02:14.011Z,11.74
2023-01-11T13:05:06.388Z,11.42
2023-01-11T13:07:44.795Z,11.51
2023-01-11T13:10:34.054Z,11.31
2023-01-11T13:13:11.949Z,11.43
2023-01-11T13:15:49.349Z,11.19
2023-01-11T13:18:30.528Z,11.14
2023-01-11T13:21:05.091Z,11.17
2023-01-11T13:23:40.072Z,11.05
2023-01-11T13:26:17.587Z,11.25
2023-01-11T13:28:51.580Z,11.37
2023-01-11T13:31:20.369Z,11.41
2023-01-11T13:33:54.734Z,11.28
2023-01-11T13:36:26.773Z,11.21
2023-01-11T13:38:59.169Z,11.15
2023-01-11T13:41:32.251Z,11.01
2023-01-11T13:44:07.325Z,11.07
2023-01-11T13:46:47.001Z,11.06
2023-01-11T13:49:26.617Z,11.15
2023-01-11T13:52:00.379Z,11.13
2023-01-11T13:54:36.662Z,11.12
2023-01-11T13:57:08.294Z,11.20
2023-01-11T13:59:44.583Z,11.34
2023-01-11T14:02:24.359Z,11.17
2023-01-11T14:04:55.721Z,11.07
2023-01-11T14:07:34.677Z,11.03
2023-01-11T14:10:19.788Z,11.03
2023-01-11T14:13:10.014Z,10.90
2023-01-11T14:15:45.268Z,10.92
2023-01-11T14:18:20.727Z,10.97
2023-01-11T14:20:54.819Z,10.86
2023-01-11T14:23:27.085Z,11.01
2023-01-11T14:26:14.849Z,11.06
2023-01-11T14:28:54.996Z,11.02
2023-01-11T14:31:47.581Z,10.95
2023-01-11T14:34:38.614Z,11.03
2023-01-11T14:37:43.584Z,10.89
2023-01-11T14:40:42.557Z,10.96
2023-01-11T14:43:26.016Z,10.93
2023-01-11T14:46:13.626Z,10.73
2023-01-11T14:48:52.106Z,10.70
2023-01-11T14:51:34.081Z,10.65
2023-01-11T14:54:06.804Z,10.66
2023-01-11T14:56:49.472Z,10.53
2023-01-11T14:59:35.772Z,10.55
2023-01-11T15:02:24.047Z,10.48
2023-01-11T15:05:28.288Z,10.53
2023-01-11T15:08:11.507Z,10.48
2023-01-11T15:10:55.746Z,10.47
2023-01-11T15:13:26.209Z,10.33
2023-01-11T15:16:25.997Z,10.33
2023-01-11T15:18:54.621Z,10.26
2023-01-11T15:21:27.477Z,10.32
2023-01-11T15:23:57.614Z,10.31
2023-01-11T15:26:27.969Z,10.29
2023-01-11T15:28:58.411Z,10.27
2023-01-11T15:31:34.379Z,10.26
2023-01-11T15:34:06.067Z,10.22
2023-01-11T15:36:59.076Z,10.18
2023-01-11T15:39:37.273Z,10.15
2023-01-11T15:42:28.745Z,10.11
2023-01-11T15:45:21.790Z,9.98
2023-01-11T15:48:08.879Z,9.96
2023-01-11T15:50:55.447Z,9.92
2023-01-11T15:53:54.770Z,9.86
2023-01-11T15:56:52.693Z,9.80
2023-01-11T16:00:09.991Z,9.83
2023-01-11T16:03:09.664Z,9.77
2023-01-11T16:05:42.573Z,9.79
2023-01-11T16:08:21.048Z,9.75
2023-01-11T16:11:00.624Z,9.64
2023-01-11T16:13:42.210Z,9.66
2023-01-11T16:16:20.187Z,9.57
2023-01-11T16:18:52.254Z,9.55
2023-01-11T16:21:27.323Z,9.60
2023-01-11T16:23:56.414Z,9.57
2023-01-11T16:26:25.463Z,9.63
2023-01-11T16:28:55.786Z,9.59
2023-01-11T16:31:23.616Z,9.65
2023-01-11T16:33:53.245Z,9.58
2023-01-11T16:36:22.642Z,9.43
2023-01-11T16:39:03.412Z,9.50
2023-01-11T16:41:41.810Z,9.26
2023-01-11T16:44:18.832Z,9.45
2023-01-11T16:47:12.113Z,9.46
2023-01-11T16:49:40.934Z,9.21
2023-01-11T16:52:39.657Z,9.17
2023-01-11T16:55:34.000Z,9.16
2023-01-11T16:58:05.871Z,9.19
2023-01-11T17:00:39.528Z,9.18
2023-01-11T17:03:23.732Z,9.10
2023-01-11T17:05:58.259Z,9.07
2023-01-11T17:08:31.636Z,8.93
2023-01-11T17:11:03.247Z,8.95
2023-01-11T17:14:13.490Z,8.88
2023-01-11T17:16:44.104Z,8.95
2023-01-11T17:19:16.013Z,8.96
2023-01-11T17:21:48.723Z,8.93
2023-01-11T17:24:17.693Z,8.99
2023-01-11T17:26:47.983Z,8.92
2023-01-11T17:29:21.130Z,8.81
2023-01-11T17:31:50.599Z,8.89
2023-01-11T17:34:20.957Z,8.89
2023-01-11T17:36:49.104Z,8.88
2023-01-11T17:39:27.064Z,8.69
2023-01-11T17:42:12.656Z,8.87
2023-01-11T17:44:59.012Z,8.68
2023-01-11T17:47:29.699Z,8.70
2023-01-11T17:50:00.031Z,8.55
2023-01-11T17:52:29.784Z,8.66
2023-01-11T17:55:12.585Z,8.67
2023-01-11T17:57:40.355Z,8.57
2023-01-11T18:00:28.701Z,8.66
2023-01-11T18:02:57.888Z,8.59
2023-01-11T18:05:28.962Z,8.44
2023-01-11T18:07:58.729Z,8.50
2023-01-11T18:10:29.700Z,8.46
2023-01-11T18:12:58.175Z,8.53
2023-01-11T18:15:30.282Z,8.46
2023-01-11T18:17:59.887Z,8.46
2023-01-11T18:20:39.554Z,8.51
2023-01-11T18:23:20.517Z,8.48
2023-01-11T18:25:48.246Z,8.44
2023-01-11T18:28:30.221Z,8.39
2023-01-11T18:31:01.695Z,8.48
2023-01-11T18:33:33.797Z,8.38
2023-01-11T18:36:03.351Z,8.25
2023-01-11T18:38:32.814Z,8.41
2023-01-11T18:41:24.105Z,8.29
2023-01-11T18:43:52.685Z,8.06
2023-01-11T18:46:20.724Z,8.05
2023-01-11T18:48:49.671Z,8.30
2023-01-11T18:51:21.445Z,8.13
2023-01-11T18:53:49.108Z,8.23
2023-01-11T18:56:17.130Z,8.24
2023-01-11T18:58:44.677Z,8.39
2023-01-11T19:01:12.775Z,8.31
2023-01-11T19:03:41.109Z,8.26
2023-01-11T19:06:13.066Z,8.27
2023-01-11T19:08:40.995Z,8.28
2023-01-11T19:11:08.530Z,8.19
2023-01-11T19:13:36.104Z,8.10
2023-01-11T19:16:03.854Z,8.30
2023-01-11T19:18:33.071Z,8.23
2023-01-11T19:21:02.878Z,8.35
2023-01-11T19:23:31.843Z,8.38
2023-01-11T19:26:01.322Z,8.43
2023-01-11T19:28:29.520Z,8.24
2023-01-11T19:30:57.275Z,8.56
2023-01-11T19:33:25.347Z,8.62
2023-01-11T19:35:53.056Z,8.46
2023-01-11T19:38:21.154Z,8.45
2023-01-11T19:40:50.624Z,8.43
2023-01-11T19:43:18.628Z,8.37
2023-01-11T19:45:46.391Z,8.11
2023-01-11T19:48:14.048Z,8.36
2023-01-11T19:50:41.801Z,8.23
2023-01-11T19:53:09.513Z,8.06
2023-01-11T19:55:38.058Z,7.99
2023-01-11T19:58:08.234Z,7.98
2023-01-11T20:00:36.395Z,7.80
2023-01-11T20:03:06.119Z,7.76
2023-01-11T20:05:34.366Z,7.80
2023-01-11T20:08:02.154Z,7.85
2023-01-11T20:10:29.900Z,7.87
2023-01-11T20:12:57.582Z,7.85
2023-01-11T20:15:26.683Z,7.80
2023-01-11T20:17:54.466Z,7.88
2023-01-11T20:20:22.348Z,7.86
2023-01-11T20:22:50.192Z,7.83
2023-01-11T20:25:18.558Z,7.90
2023-01-11T20:27:46.533Z,7.91
2023-01-11T20:30:14.511Z,8.01
2023-01-11T20:32:43.551Z,7.98
2023-01-11T20:35:12.942Z,7.99
2023-01-11T20:37:40.691Z,8.03
2023-01-11T20:40:11.897Z,8.01
2023-01-11T20:42:40.778Z,8.00
2023-01-11T20:45:09.864Z,8.07
2023-01-11T20:47:37.868Z,8.10
2023-01-11T20:50:07.996Z,8.15
2023-01-11T20:52:35.741Z,8.08
2023-01-11T20:55:03.570Z,8.10
2023-01-11T20:57:31.270Z,7.98
2023-01-11T20:59:59.030Z,8.00
2023-01-11T21:02:26.865Z,8.04
2023-01-11T21:04:54.644Z,8.10
2023-01-11T21:07:23.644Z,8.09
2023-01-11T21:09:51.294Z,8.04
2023-01-11T21:12:19.462Z,8.04
2023-01-11T21:14:47.038Z,7.90
2023-01-11T21:17:14.673Z,7.98
2023-01-11T21:19:43.566Z,7.87
2023-01-11T21:22:11.199Z,7.93
2023-01-11T21:24:41.058Z,7.87
2023-01-11T21:27:09.483Z,7.88
2023-01-11T21:29:37.098Z,7.86
2023-01-11T21:32:04.905Z,7.88
2023-01-11T21:34:32.507Z,7.92
2023-01-11T21:37:00.105Z,7.90
2023-01-11T21:39:27.941Z,7.87
2023-01-11T21:41:58.208Z,7.92
2023-01-11T21:44:29.805Z,7.86
2023-01-11T21:46:57.683Z,7.92
2023-01-11T21:49:25.472Z,7.84
2023-01-11T21:51:53.584Z,7.84
2023-01-11T21:54:21.561Z,7.86
2023-01-11T21:56:50.536Z,7.88
2023-01-11T21:59:20.370Z,7.82
2023-01-11T22:01:49.701Z,7.86
2023-01-11T22:04:18.957Z,7.80
2023-01-11T22:06:53.864Z,7.80
2023-01-11T22:09:22.159Z,7.82
2023-01-11T22:11:50.971Z,7.81
2023-01-11T22:14:20.325Z,7.80
2023-01-11T22:16:48.668Z,7.86
2023-01-11T22:19:17.017Z,7.89
2023-01-11T22:21:44.862Z,7.90
2023-01-11T22:24:13.146Z,8.00
2023-01-11T22:26:41.073Z,8.00
2023-01-11T22:29:14.650Z,8.01
2023-01-11T22:31:46.468Z,8.05
2023-01-11T22:34:15.028Z,8.08
2023-01-11T22:36:42.950Z,8.10
2023-01-11T22:39:11.015Z,8.09
2023-01-11T22:41:40.046Z,8.08
2023-01-11T22:44:08.199Z,8.08
2023-01-11T22:46:36.047Z,8.08
2023-01-11T22:49:06.061Z,8.09
2023-01-11T22:51:34.104Z,8.07
2023-01-11T22:54:01.660Z,8.13
2023-01-11T22:56:29.391Z,8.05
2023-01-11T22:58:58.053Z,8.16
2023-01-11T23:01:27.489Z,8.13
2023-01-11T23:03:56.400Z,8.17
2023-01-11T23:06:27.184Z,8.18
2023-01-11T23:08:55.952Z,8.17
2023-01-11T23:11:43.153Z,8.22
2023-01-11T23:14:13.056Z,8.20
2023-01-11T23:16:41.105Z,8.24
2023-01-11T23:19:10.044Z,8.20
2023-01-11T23:21:40.657Z,8.26
2023-01-11T23:24:09.339Z,8.25
2023-01-11T23:26:37.488Z,8.26
2023-01-11T23:29:05.940Z,8.26
2023-01-11T23:31:33.610Z,8.22
2023-01-11T23:34:02.926Z,8.26
2023-01-11T23:36:32.719Z,8.33
2023-01-11T23:39:02.508Z,8.32
2023-01-11T23:41:47.568Z,8.29
2023-01-11T23:44:16.962Z,8.37
2023-01-11T23:47:02.547Z,8.39
2023-01-11T23:49:31.224Z,8.42
2023-01-11T23:51:59.492Z,8.42
2023-01-11T23:54:30.198Z,8.48
2023-01-11T23:56:58.685Z,8.47
2023-01-11T23:59:26.327Z,8.37
